createdAt,value
2019-02-24T00:00:34.236Z,2.60
2019-02-24T00:01:34.260Z,2.30
2019-02-24T00:02:34.219Z,2.30
2019-02-24T00:03:34.201Z,2.20
2019-02-24T00:04:34.195Z,2.50
2019-02-24T00:05:44.741Z,2.10
2019-02-24T00:06:34.166Z,2.20
2019-02-24T00:07:34.168Z,2.40
2019-02-24T00:08:34.151Z,2.20
2019-02-24T00:09:34.134Z,2.20
2019-02-24T00:10:34.135Z,2.50
2019-02-24T00:11:34.114Z,2.30
2019-02-24T00:12:34.149Z,2.40
2019-02-24T00:13:34.105Z,2.50
2019-02-24T00:14:34.080Z,2.00
2019-02-24T00:15:34.072Z,2.20
2019-02-24T00:16:34.063Z,2.70
2019-02-24T00:17:34.046Z,2.20
2019-02-24T00:18:34.098Z,2.60
2019-02-24T00:19:34.028Z,2.50
2019-02-24T00:20:34.016Z,2.90
2019-02-24T00:21:34.005Z,2.50
2019-02-24T00:22:33.999Z,2.70
2019-02-24T00:23:33.990Z,2.60
2019-02-24T00:24:33.989Z,2.50
2019-02-24T00:25:33.961Z,2.60
2019-02-24T00:26:33.952Z,2.70
2019-02-24T00:27:33.946Z,3.00
2019-02-24T00:28:33.933Z,2.40
2019-02-24T00:29:34.095Z,2.90
2019-02-24T00:30:33.918Z,2.50
2019-02-24T00:31:33.899Z,3.10
2019-02-24T00:32:34.479Z,2.90
2019-02-24T00:33:33.884Z,2.90
2019-02-24T00:34:33.867Z,2.80
2019-02-24T00:35:33.895Z,2.70
2019-02-24T00:36:43.842Z,2.60
2019-02-24T00:37:33.833Z,3.40
2019-02-24T00:38:33.824Z,3.00
2019-02-24T00:39:33.841Z,3.20
2019-02-24T00:40:33.802Z,3.00
2019-02-24T00:41:33.821Z,2.70
2019-02-24T00:42:33.778Z,2.70
2019-02-24T00:43:33.770Z,3.50
2019-02-24T00:44:33.770Z,2.60
2019-02-24T00:45:33.746Z,3.20
2019-02-24T00:46:33.740Z,2.90
2019-02-24T00:47:33.764Z,2.70
2019-02-24T00:48:33.726Z,2.80
2019-02-24T00:49:33.714Z,2.90
2019-02-24T00:50:33.700Z,3.10
2019-02-24T00:51:33.681Z,2.90
2019-02-24T00:52:33.673Z,3.00
2019-02-24T00:53:33.707Z,3.00
2019-02-24T00:54:33.649Z,2.50
2019-02-24T00:55:33.650Z,3.10
2019-02-24T00:56:33.630Z,2.70
2019-02-24T00:57:33.617Z,2.60
2019-02-24T00:58:33.606Z,3.80
2019-02-24T00:59:33.633Z,3.20
2019-02-24T01:00:33.584Z,3.40
2019-02-24T01:01:33.597Z,3.90
2019-02-24T01:02:33.566Z,4.10
2019-02-24T01:03:33.560Z,4.00
2019-02-24T01:04:33.549Z,3.50
2019-02-24T01:05:33.574Z,4.20
2019-02-24T01:06:33.529Z,3.70
2019-02-24T01:07:46.105Z,3.40
2019-02-24T01:08:33.503Z,3.50
2019-02-24T01:09:33.514Z,3.80
2019-02-24T01:10:33.479Z,4.20
2019-02-24T01:11:33.519Z,4.20
2019-02-24T01:12:33.460Z,3.70
2019-02-24T01:13:33.451Z,3.60
2019-02-24T01:14:33.462Z,3.80
2019-02-24T01:15:33.427Z,4.40
2019-02-24T01:16:33.413Z,4.10
2019-02-24T01:17:33.418Z,4.60
2019-02-24T01:18:33.398Z,4.20
2019-02-24T01:19:33.407Z,4.20
2019-02-24T01:20:33.377Z,3.90
2019-02-24T01:21:33.364Z,4.50
2019-02-24T01:22:33.440Z,4.60
2019-02-24T01:23:33.343Z,4.50
2019-02-24T01:24:33.327Z,3.90
2019-02-24T01:25:33.326Z,4.30
2019-02-24T01:26:33.307Z,3.80
2019-02-24T01:27:33.293Z,4.10
2019-02-24T01:28:33.298Z,3.90
2019-02-24T01:29:33.275Z,3.50
2019-02-24T01:30:33.270Z,4.10
2019-02-24T01:31:33.898Z,3.80
2019-02-24T01:32:33.241Z,3.70
2019-02-24T01:33:33.281Z,3.10
2019-02-24T01:34:33.229Z,4.40
2019-02-24T01:35:33.207Z,3.40
2019-02-24T01:36:33.204Z,3.80
2019-02-24T01:37:33.204Z,4.20
2019-02-24T01:38:43.467Z,5.30
2019-02-24T01:39:33.165Z,4.30
2019-02-24T01:40:33.158Z,4.50
2019-02-24T01:41:33.153Z,4.30
2019-02-24T01:42:33.145Z,3.80
2019-02-24T01:43:33.148Z,4.30
2019-02-24T01:44:33.128Z,4.30
2019-02-24T01:45:33.142Z,3.40
2019-02-24T01:46:33.104Z,3.30
2019-02-24T01:47:33.082Z,3.80
2019-02-24T01:48:33.070Z,3.90
2019-02-24T01:49:33.066Z,3.20
2019-02-24T01:50:33.049Z,3.30
2019-02-24T01:51:33.090Z,3.40
2019-02-24T01:52:33.035Z,3.40
2019-02-24T01:53:33.015Z,3.00
2019-02-24T01:54:33.004Z,3.50
2019-02-24T01:55:32.996Z,3.30
2019-02-24T01:56:32.984Z,2.90
2019-02-24T01:57:33.027Z,3.30
2019-02-24T01:58:35.425Z,2.80
2019-02-24T01:59:32.954Z,2.20
2019-02-24T02:00:32.943Z,2.80
2019-02-24T02:01:32.938Z,2.90
2019-02-24T02:02:32.922Z,2.80
2019-02-24T02:03:32.966Z,3.30
2019-02-24T02:04:32.900Z,2.50
2019-02-24T02:05:32.887Z,2.50
2019-02-24T02:06:32.882Z,2.80
2019-02-24T02:07:32.874Z,3.40
2019-02-24T02:08:32.854Z,3.00
2019-02-24T02:09:42.996Z,2.50
2019-02-24T02:10:32.832Z,2.90
2019-02-24T02:11:32.830Z,3.30
2019-02-24T02:12:32.811Z,2.90
2019-02-24T02:13:32.807Z,2.70
2019-02-24T02:14:32.888Z,2.30
2019-02-24T02:15:32.792Z,2.80
2019-02-24T02:16:32.778Z,2.40
2019-02-24T02:17:32.769Z,3.10
2019-02-24T02:18:32.782Z,3.10
2019-02-24T02:19:32.736Z,2.60
2019-02-24T02:20:32.725Z,2.30
2019-02-24T02:21:32.720Z,2.40
2019-02-24T02:22:32.721Z,2.40
2019-02-24T02:23:32.693Z,2.80
2019-02-24T02:24:32.726Z,2.60
2019-02-24T02:25:32.675Z,2.60
2019-02-24T02:26:32.669Z,2.70
2019-02-24T02:27:32.654Z,2.50
2019-02-24T02:28:32.657Z,3.10
2019-02-24T02:29:32.629Z,2.70
2019-02-24T02:30:32.635Z,2.90
2019-02-24T02:31:32.610Z,2.70
2019-02-24T02:32:32.599Z,2.70
2019-02-24T02:33:32.590Z,2.40
2019-02-24T02:34:32.601Z,3.20
2019-02-24T02:35:32.603Z,2.80
2019-02-24T02:36:32.558Z,2.90
2019-02-24T02:37:33.448Z,2.70
2019-02-24T02:38:32.543Z,2.50
2019-02-24T02:39:32.523Z,3.10
2019-02-24T02:40:42.490Z,2.40
2019-02-24T02:41:32.677Z,2.50
2019-02-24T02:42:32.496Z,2.50
2019-02-24T02:43:32.486Z,2.60
2019-02-24T02:44:32.478Z,2.50
2019-02-24T02:45:32.480Z,2.80
2019-02-24T02:46:32.459Z,3.00
2019-02-24T02:47:32.473Z,2.90
2019-02-24T02:48:32.440Z,2.90
2019-02-24T02:49:32.418Z,2.80
2019-02-24T02:50:32.412Z,3.10
2019-02-24T02:51:32.414Z,2.50
2019-02-24T02:52:32.394Z,2.50
2019-02-24T02:53:32.425Z,2.80
2019-02-24T02:54:32.369Z,2.80
2019-02-24T02:55:32.364Z,3.00
2019-02-24T02:56:32.342Z,2.80
2019-02-24T02:57:32.337Z,2.80
2019-02-24T02:58:32.328Z,2.70
2019-02-24T02:59:32.360Z,2.70
2019-02-24T03:00:32.309Z,3.20
2019-02-24T03:01:32.287Z,2.50
2019-02-24T03:02:32.279Z,2.50
2019-02-24T03:03:32.270Z,2.80
2019-02-24T03:04:32.257Z,2.30
2019-02-24T03:05:32.300Z,2.70
2019-02-24T03:06:32.238Z,3.20
2019-02-24T03:07:32.231Z,2.70
2019-02-24T03:08:32.216Z,2.40
2019-02-24T03:09:32.211Z,2.50
2019-02-24T03:10:32.197Z,2.20
2019-02-24T03:11:43.048Z,2.50
2019-02-24T03:12:32.173Z,2.50
2019-02-24T03:13:32.167Z,2.60
2019-02-24T03:14:32.156Z,3.50
2019-02-24T03:15:32.136Z,2.40
2019-02-24T03:16:32.143Z,2.90
2019-02-24T03:17:32.295Z,3.10
2019-02-24T03:18:32.105Z,3.20
2019-02-24T03:19:32.107Z,2.60
2019-02-24T03:20:32.090Z,3.00
2019-02-24T03:21:32.079Z,2.90
2019-02-24T03:22:32.072Z,3.10
2019-02-24T03:23:32.078Z,2.90
2019-02-24T03:24:32.053Z,3.20
2019-02-24T03:25:32.033Z,2.80
2019-02-24T03:26:32.027Z,2.90
2019-02-24T03:27:32.010Z,2.80
2019-02-24T03:28:32.024Z,2.80
2019-02-24T03:29:32.035Z,3.20
2019-02-24T03:30:31.993Z,2.90
2019-02-24T03:31:31.974Z,3.20
2019-02-24T03:32:31.957Z,2.40
2019-02-24T03:33:31.959Z,3.00
2019-02-24T03:34:31.939Z,3.00
2019-02-24T03:35:31.970Z,2.50
2019-02-24T03:36:31.931Z,2.30
2019-02-24T03:37:31.906Z,3.30
2019-02-24T03:38:31.901Z,2.80
2019-02-24T03:39:31.888Z,2.60
2019-02-24T03:40:31.874Z,2.60
2019-02-24T03:41:31.879Z,2.80
2019-02-24T03:42:44.109Z,2.50
2019-02-24T03:43:32.532Z,2.70
2019-02-24T03:44:31.835Z,2.60
2019-02-24T03:45:31.819Z,2.80
2019-02-24T03:46:31.810Z,2.40
2019-02-24T03:47:31.821Z,2.60
2019-02-24T03:48:31.791Z,2.90
2019-02-24T03:49:31.777Z,2.70
2019-02-24T03:50:31.794Z,2.50
2019-02-24T03:51:31.800Z,2.50
2019-02-24T03:52:31.745Z,2.90
2019-02-24T03:53:31.733Z,3.00
2019-02-24T03:54:31.727Z,3.30
2019-02-24T03:55:31.725Z,3.10
2019-02-24T03:56:31.712Z,2.80
2019-02-24T03:57:31.734Z,3.10
2019-02-24T03:58:31.681Z,3.00
2019-02-24T03:59:31.672Z,2.70
2019-02-24T04:00:31.661Z,3.10
2019-02-24T04:01:31.656Z,3.10
2019-02-24T04:02:31.692Z,2.70
2019-02-24T04:03:31.647Z,3.10
2019-02-24T04:04:31.617Z,2.60
2019-02-24T04:05:31.608Z,3.00
2019-02-24T04:06:31.595Z,3.00
2019-02-24T04:07:31.590Z,2.70
2019-02-24T04:08:31.588Z,2.70
2019-02-24T04:09:31.582Z,3.20
2019-02-24T04:10:31.555Z,3.40
2019-02-24T04:11:31.545Z,2.70
2019-02-24T04:12:31.536Z,3.00
2019-02-24T04:13:41.542Z,2.90
2019-02-24T04:14:31.512Z,3.10
2019-02-24T04:15:31.539Z,2.90
2019-02-24T04:16:31.490Z,2.90
2019-02-24T04:17:31.483Z,2.90
2019-02-24T04:18:31.493Z,3.00
2019-02-24T04:19:31.461Z,3.00
2019-02-24T04:20:31.450Z,2.90
2019-02-24T04:21:31.494Z,2.50
2019-02-24T04:22:31.423Z,3.00
2019-02-24T04:23:31.412Z,2.80
2019-02-24T04:24:31.407Z,2.50
2019-02-24T04:25:31.395Z,2.70
2019-02-24T04:26:31.401Z,2.80
2019-02-24T04:27:31.414Z,2.80
2019-02-24T04:28:31.359Z,2.50
2019-02-24T04:29:31.355Z,3.10
2019-02-24T04:30:31.352Z,3.10
2019-02-24T04:31:31.331Z,2.70
2019-02-24T04:32:31.326Z,2.70
2019-02-24T04:33:31.356Z,2.90
2019-02-24T04:34:31.295Z,2.90
2019-02-24T04:35:31.293Z,2.80
2019-02-24T04:36:31.277Z,2.50
2019-02-24T04:37:31.263Z,2.80
2019-02-24T04:38:31.282Z,2.80
2019-02-24T04:39:31.284Z,3.30
2019-02-24T04:40:31.237Z,2.80
2019-02-24T04:41:31.228Z,2.60
2019-02-24T04:42:31.217Z,2.50
2019-02-24T04:43:31.204Z,2.30
2019-02-24T04:44:42.113Z,3.00
2019-02-24T04:45:31.179Z,2.60
2019-02-24T04:46:31.173Z,2.10
2019-02-24T04:47:31.159Z,2.70
2019-02-24T04:48:31.151Z,2.50
2019-02-24T04:49:31.163Z,2.30
2019-02-24T04:50:31.164Z,2.60
2019-02-24T04:51:31.121Z,2.50
2019-02-24T04:52:31.122Z,2.10
2019-02-24T04:53:31.099Z,2.70
2019-02-24T04:54:31.086Z,2.70
2019-02-24T04:55:31.078Z,3.00
2019-02-24T04:56:31.101Z,2.20
2019-02-24T04:57:31.069Z,2.80
2019-02-24T04:58:31.054Z,2.50
2019-02-24T04:59:35.065Z,3.00
2019-02-24T05:00:31.021Z,2.90
2019-02-24T05:01:31.012Z,2.40
2019-02-24T05:02:38.676Z,2.60
2019-02-24T05:03:37.985Z,2.70
2019-02-24T05:04:31.035Z,2.20
2019-02-24T05:05:30.968Z,2.50
2019-02-24T05:06:30.972Z,2.80
2019-02-24T05:07:30.952Z,2.60
2019-02-24T05:08:30.981Z,2.60
2019-02-24T05:09:30.928Z,2.60
2019-02-24T05:10:30.917Z,2.60
2019-02-24T05:11:30.910Z,2.60
2019-02-24T05:12:30.895Z,2.50
2019-02-24T05:13:30.883Z,2.20
2019-02-24T05:14:30.913Z,2.90
2019-02-24T05:15:30.863Z,2.90
2019-02-24T05:16:30.864Z,2.70
2019-02-24T05:17:30.838Z,2.90
2019-02-24T05:18:30.828Z,3.10
2019-02-24T05:19:30.825Z,2.90
2019-02-24T05:20:30.981Z,3.20
2019-02-24T05:21:37.795Z,3.20
2019-02-24T05:22:30.790Z,3.10
2019-02-24T05:23:30.851Z,2.70
2019-02-24T05:24:30.766Z,3.00
2019-02-24T05:25:30.753Z,3.00
2019-02-24T05:26:30.755Z,3.60
2019-02-24T05:27:30.731Z,3.30
2019-02-24T05:28:30.722Z,3.70
2019-02-24T05:29:30.719Z,3.50
2019-02-24T05:30:30.742Z,2.70
2019-02-24T05:31:30.694Z,2.90
2019-02-24T05:32:30.681Z,2.80
2019-02-24T05:33:30.682Z,3.10
2019-02-24T05:34:30.663Z,2.90
2019-02-24T05:35:30.651Z,3.30
2019-02-24T05:36:31.435Z,4.20
2019-02-24T05:37:30.627Z,3.90
2019-02-24T05:38:30.622Z,4.10
2019-02-24T05:39:30.607Z,3.80
2019-02-24T05:40:30.607Z,3.60
2019-02-24T05:41:30.587Z,3.90
2019-02-24T05:42:30.610Z,4.10
2019-02-24T05:43:30.567Z,3.30
2019-02-24T05:44:30.555Z,3.10
2019-02-24T05:45:30.546Z,3.40
2019-02-24T05:46:30.536Z,3.50
2019-02-24T05:47:30.533Z,3.40
2019-02-24T05:48:30.545Z,3.60
2019-02-24T05:49:30.503Z,3.50
2019-02-24T05:50:30.492Z,3.60
2019-02-24T05:51:30.486Z,3.40
2019-02-24T05:52:40.474Z,3.30
2019-02-24T05:53:30.459Z,3.70
2019-02-24T05:54:30.490Z,3.80
2019-02-24T05:55:30.439Z,3.70
2019-02-24T05:56:30.424Z,3.20
2019-02-24T05:57:30.423Z,3.50
2019-02-24T05:58:30.410Z,3.90
2019-02-24T05:59:30.393Z,3.30
2019-02-24T06:00:30.395Z,3.60
2019-02-24T06:01:30.374Z,3.20
2019-02-24T06:02:30.365Z,3.70
2019-02-24T06:03:30.361Z,2.90
2019-02-24T06:04:30.340Z,3.50
2019-02-24T06:05:30.368Z,3.40
2019-02-24T06:06:30.317Z,3.20
2019-02-24T06:07:30.310Z,3.30
2019-02-24T06:08:30.301Z,3.40
2019-02-24T06:09:30.289Z,3.50
2019-02-24T06:10:30.284Z,3.20
2019-02-24T06:11:30.275Z,3.40
2019-02-24T06:12:30.252Z,3.30
2019-02-24T06:13:30.248Z,3.70
2019-02-24T06:14:30.234Z,3.20
2019-02-24T06:15:30.226Z,3.80
2019-02-24T06:16:30.261Z,3.20
2019-02-24T06:17:30.215Z,3.30
2019-02-24T06:18:30.195Z,3.30
2019-02-24T06:19:30.181Z,3.10
2019-02-24T06:20:30.175Z,3.60
2019-02-24T06:21:30.159Z,3.10
2019-02-24T06:22:30.195Z,3.20
2019-02-24T06:23:40.429Z,3.60
2019-02-24T06:24:30.135Z,3.80
2019-02-24T06:25:30.120Z,3.50
2019-02-24T06:26:30.263Z,3.40
2019-02-24T06:27:30.098Z,3.70
2019-02-24T06:28:30.264Z,3.90
2019-02-24T06:29:30.074Z,3.50
2019-02-24T06:30:30.061Z,3.30
2019-02-24T06:31:30.063Z,3.20
2019-02-24T06:32:30.045Z,3.20
2019-02-24T06:33:30.033Z,2.80
2019-02-24T06:34:30.060Z,2.90
2019-02-24T06:35:30.007Z,3.00
2019-02-24T06:36:30.000Z,2.60
2019-02-24T06:37:29.993Z,3.10
2019-02-24T06:38:29.983Z,3.00
2019-02-24T06:39:29.968Z,3.30
2019-02-24T06:40:30.132Z,2.90
2019-02-24T06:41:29.948Z,3.00
2019-02-24T06:42:29.940Z,2.90
2019-02-24T06:43:29.927Z,3.30
2019-02-24T06:44:29.915Z,2.60
2019-02-24T06:45:29.900Z,2.80
2019-02-24T06:46:29.911Z,3.00
2019-02-24T06:47:29.884Z,2.70
2019-02-24T06:48:29.875Z,3.10
2019-02-24T06:49:29.864Z,2.80
2019-02-24T06:50:35.278Z,3.20
2019-02-24T06:51:30.871Z,3.40
2019-02-24T06:52:29.830Z,3.50
2019-02-24T06:53:29.812Z,3.70
2019-02-24T06:54:39.805Z,3.10
2019-02-24T06:55:29.793Z,3.20
2019-02-24T06:56:29.782Z,3.40
2019-02-24T06:57:29.811Z,3.20
2019-02-24T06:58:29.766Z,3.40
2019-02-24T06:59:29.750Z,3.20
2019-02-24T07:00:29.745Z,3.50
2019-02-24T07:01:29.734Z,3.10
2019-02-24T07:02:29.718Z,3.40
2019-02-24T07:03:29.759Z,3.30
2019-02-24T07:04:29.697Z,3.40
2019-02-24T07:05:29.688Z,2.80
2019-02-24T07:06:29.673Z,3.40
2019-02-24T07:07:29.665Z,3.50
2019-02-24T07:08:29.661Z,2.90
2019-02-24T07:09:29.685Z,3.30
2019-02-24T07:10:29.636Z,3.50
2019-02-24T07:11:29.624Z,3.30
2019-02-24T07:12:29.610Z,3.30
2019-02-24T07:13:29.596Z,3.20
2019-02-24T07:14:29.597Z,3.40
2019-02-24T07:15:29.634Z,3.20
2019-02-24T07:16:29.578Z,3.10
2019-02-24T07:17:29.555Z,3.20
2019-02-24T07:18:29.555Z,3.60
2019-02-24T07:19:29.539Z,3.10
2019-02-24T07:20:29.527Z,3.10
2019-02-24T07:21:29.556Z,3.20
2019-02-24T07:22:29.513Z,3.20
2019-02-24T07:23:29.494Z,3.30
2019-02-24T07:24:29.481Z,3.20
2019-02-24T07:25:39.563Z,2.20
2019-02-24T07:26:29.460Z,2.90
2019-02-24T07:27:29.461Z,3.30
2019-02-24T07:28:29.438Z,2.80
2019-02-24T07:29:29.433Z,2.70
2019-02-24T07:30:29.424Z,3.10
2019-02-24T07:31:29.409Z,3.30
2019-02-24T07:32:29.445Z,3.10
2019-02-24T07:33:29.386Z,3.00
2019-02-24T07:34:29.372Z,3.60
2019-02-24T07:35:29.363Z,2.70
2019-02-24T07:36:29.356Z,2.60
2019-02-24T07:37:29.341Z,3.10
2019-02-24T07:38:29.386Z,3.10
2019-02-24T07:39:29.318Z,2.60
2019-02-24T07:40:29.311Z,3.20
2019-02-24T07:41:29.301Z,2.90
2019-02-24T07:42:29.290Z,3.00
2019-02-24T07:43:29.279Z,2.70
2019-02-24T07:44:29.311Z,2.80
2019-02-24T07:45:29.257Z,3.40
2019-02-24T07:46:29.244Z,3.20
2019-02-24T07:47:29.231Z,3.30
2019-02-24T07:48:29.223Z,3.50
2019-02-24T07:49:29.210Z,3.50
2019-02-24T07:50:29.222Z,3.00
2019-02-24T07:51:29.188Z,2.80
2019-02-24T07:52:29.179Z,3.20
2019-02-24T07:53:29.172Z,3.10
2019-02-24T07:54:29.162Z,2.70
2019-02-24T07:55:29.153Z,3.70
2019-02-24T07:56:40.309Z,2.60
2019-02-24T07:57:29.126Z,2.40
2019-02-24T07:58:29.115Z,3.00
2019-02-24T07:59:29.103Z,2.70
2019-02-24T08:00:32.228Z,2.60
2019-02-24T08:01:29.083Z,2.60
2019-02-24T08:02:29.170Z,2.40
2019-02-24T08:03:29.055Z,2.20
2019-02-24T08:04:29.054Z,2.80
2019-02-24T08:05:29.038Z,2.30
2019-02-24T08:06:29.030Z,2.80
2019-02-24T08:07:29.015Z,2.50
2019-02-24T08:08:29.036Z,2.90
2019-02-24T08:09:28.995Z,3.30
2019-02-24T08:10:28.985Z,2.60
2019-02-24T08:11:28.974Z,2.70
2019-02-24T08:12:28.958Z,2.90
2019-02-24T08:13:28.947Z,2.70
2019-02-24T08:14:29.114Z,2.70
2019-02-24T08:15:28.929Z,2.50
2019-02-24T08:16:28.921Z,2.40
2019-02-24T08:17:28.908Z,2.50
2019-02-24T08:18:28.891Z,2.60
2019-02-24T08:19:30.120Z,1.70
2019-02-24T08:20:28.880Z,2.70
2019-02-24T08:21:28.862Z,2.80
2019-02-24T08:22:28.856Z,2.60
2019-02-24T08:23:28.842Z,2.10
2019-02-24T08:24:29.227Z,1.90
2019-02-24T08:25:28.861Z,2.40
2019-02-24T08:26:28.805Z,2.30
2019-02-24T08:27:39.387Z,2.50
2019-02-24T08:28:28.788Z,2.30
2019-02-24T08:29:28.775Z,3.00
2019-02-24T08:30:28.761Z,1.80
2019-02-24T08:31:28.789Z,2.80
2019-02-24T08:32:28.759Z,2.30
2019-02-24T08:33:28.727Z,1.90
2019-02-24T08:34:28.718Z,2.70
2019-02-24T08:35:28.721Z,2.30
2019-02-24T08:36:28.698Z,1.70
2019-02-24T08:37:28.727Z,2.30
2019-02-24T08:38:28.673Z,2.10
2019-02-24T08:39:28.669Z,2.30
2019-02-24T08:40:28.660Z,2.30
2019-02-24T08:41:28.642Z,1.80
2019-02-24T08:42:28.634Z,1.70
2019-02-24T08:43:28.660Z,2.60
2019-02-24T08:44:28.612Z,2.50
2019-02-24T08:45:28.598Z,2.60
2019-02-24T08:46:28.603Z,2.30
2019-02-24T08:47:28.583Z,2.90
2019-02-24T08:48:28.566Z,2.10
2019-02-24T08:49:28.565Z,2.40
2019-02-24T08:50:28.545Z,2.30
2019-02-24T08:51:28.538Z,2.80
2019-02-24T08:52:28.537Z,2.10
2019-02-24T08:53:28.516Z,2.10
2019-02-24T08:54:28.548Z,2.50
2019-02-24T08:55:28.490Z,2.40
2019-02-24T08:56:28.479Z,1.40
2019-02-24T08:57:28.471Z,2.40
2019-02-24T08:58:38.795Z,2.10
2019-02-24T08:59:28.453Z,2.60
2019-02-24T09:00:28.479Z,2.40
2019-02-24T09:01:28.426Z,2.50
2019-02-24T09:02:28.415Z,2.50
2019-02-24T09:03:28.416Z,3.00
2019-02-24T09:04:28.401Z,3.50
2019-02-24T09:05:28.385Z,2.80
2019-02-24T09:06:28.430Z,2.60
2019-02-24T09:07:28.361Z,2.10
2019-02-24T09:08:28.350Z,2.80
2019-02-24T09:09:28.342Z,2.50
2019-02-24T09:10:28.329Z,3.20
2019-02-24T09:11:28.332Z,2.40
2019-02-24T09:12:28.342Z,2.80
2019-02-24T09:13:28.681Z,2.90
2019-02-24T09:14:28.284Z,2.50
2019-02-24T09:15:28.273Z,2.60
2019-02-24T09:16:28.268Z,3.00
2019-02-24T09:17:28.257Z,2.50
2019-02-24T09:18:28.280Z,2.50
2019-02-24T09:19:28.231Z,2.90
2019-02-24T09:20:28.229Z,2.30
2019-02-24T09:21:28.204Z,2.20
2019-02-24T09:22:28.198Z,2.00
2019-02-24T09:23:28.187Z,2.10
2019-02-24T09:24:28.212Z,2.30
2019-02-24T09:25:28.170Z,2.10
2019-02-24T09:26:28.155Z,2.30
2019-02-24T09:27:28.142Z,2.40
2019-02-24T09:28:28.131Z,2.50
2019-02-24T09:29:38.868Z,2.70
2019-02-24T09:30:28.108Z,2.50
2019-02-24T09:31:28.096Z,3.10
2019-02-24T09:32:28.084Z,2.40
2019-02-24T09:33:28.074Z,2.50
2019-02-24T09:34:28.073Z,2.60
2019-02-24T09:35:28.057Z,2.50
2019-02-24T09:36:28.042Z,2.70
2019-02-24T09:37:28.039Z,2.80
2019-02-24T09:38:28.016Z,2.50
2019-02-24T09:39:28.009Z,2.80
2019-02-24T09:40:28.035Z,2.80
2019-02-24T09:41:27.985Z,2.60
2019-02-24T09:42:27.978Z,3.30
2019-02-24T09:43:27.961Z,2.30
2019-02-24T09:44:27.958Z,2.30
2019-02-24T09:45:27.944Z,2.60
2019-02-24T09:46:28.289Z,2.60
2019-02-24T09:47:27.927Z,2.60
2019-02-24T09:48:27.918Z,2.70
2019-02-24T09:49:27.901Z,2.50
2019-02-24T09:50:27.885Z,3.00
2019-02-24T09:51:27.877Z,2.80
2019-02-24T09:52:27.873Z,2.00
2019-02-24T09:53:27.853Z,3.00
2019-02-24T09:54:27.845Z,2.30
2019-02-24T09:55:27.834Z,2.60
2019-02-24T09:56:27.825Z,2.20
2019-02-24T09:57:27.815Z,2.50
2019-02-24T09:58:27.842Z,2.40
2019-02-24T09:59:27.794Z,2.80
2019-02-24T10:00:37.860Z,2.60
2019-02-24T10:01:27.774Z,2.20
2019-02-24T10:02:27.761Z,2.50
2019-02-24T10:03:27.747Z,2.60
2019-02-24T10:04:27.767Z,2.30
2019-02-24T10:05:27.734Z,2.70
2019-02-24T10:06:27.718Z,2.40
2019-02-24T10:07:27.702Z,2.40
2019-02-24T10:08:27.700Z,2.10
2019-02-24T10:09:27.680Z,2.10
2019-02-24T10:10:27.713Z,2.20
2019-02-24T10:11:27.661Z,1.70
2019-02-24T10:12:27.653Z,1.60
2019-02-24T10:13:27.643Z,2.20
2019-02-24T10:14:27.626Z,2.20
2019-02-24T10:15:27.612Z,2.00
2019-02-24T10:16:27.781Z,2.20
2019-02-24T10:17:27.595Z,2.20
2019-02-24T10:18:27.586Z,1.80
2019-02-24T10:19:27.574Z,1.70
2019-02-24T10:20:27.563Z,1.80
2019-02-24T10:21:27.548Z,2.10
2019-02-24T10:22:27.574Z,2.10
2019-02-24T10:23:27.529Z,1.90
2019-02-24T10:24:27.512Z,1.60
2019-02-24T10:25:27.503Z,1.80
2019-02-24T10:26:27.507Z,2.10
2019-02-24T10:27:27.486Z,1.40
2019-02-24T10:28:27.510Z,1.80
2019-02-24T10:29:27.465Z,1.40
2019-02-24T10:30:27.445Z,1.40
2019-02-24T10:31:37.667Z,2.10
2019-02-24T10:32:27.423Z,1.90
2019-02-24T10:33:27.416Z,2.00
2019-02-24T10:34:27.439Z,2.00
2019-02-24T10:35:27.397Z,1.90
2019-02-24T10:36:29.204Z,2.00
2019-02-24T10:37:27.369Z,2.00
2019-02-24T10:38:27.365Z,1.70
2019-02-24T10:39:29.736Z,1.90
2019-02-24T10:40:27.379Z,1.90
2019-02-24T10:41:27.330Z,2.00
2019-02-24T10:42:27.883Z,2.00
2019-02-24T10:43:27.305Z,2.30
2019-02-24T10:44:27.321Z,2.10
2019-02-24T10:45:27.290Z,2.40
2019-02-24T10:46:27.410Z,2.20
2019-02-24T10:47:27.263Z,2.30
2019-02-24T10:48:27.256Z,1.90
2019-02-24T10:49:27.238Z,2.40
2019-02-24T10:50:27.229Z,2.00
2019-02-24T10:51:27.223Z,2.20
2019-02-24T10:52:27.249Z,2.10
2019-02-24T10:53:28.252Z,2.30
2019-02-24T10:54:27.197Z,2.70
2019-02-24T10:55:27.180Z,2.80
2019-02-24T10:56:27.163Z,1.90
2019-02-24T10:57:27.179Z,2.70
2019-02-24T10:58:34.547Z,2.00
2019-02-24T10:59:28.224Z,1.90
2019-02-24T11:00:27.122Z,2.20
2019-02-24T11:01:29.728Z,2.40
2019-02-24T11:02:37.319Z,1.60
2019-02-24T11:03:27.088Z,1.90
2019-02-24T11:04:27.091Z,1.60
2019-02-24T11:05:27.082Z,1.60
2019-02-24T11:06:27.051Z,2.00
2019-02-24T11:07:27.051Z,1.80
2019-02-24T11:08:27.038Z,1.80
2019-02-24T11:09:27.022Z,1.80
2019-02-24T11:10:27.055Z,1.70
2019-02-24T11:11:27.005Z,2.10
2019-02-24T11:12:26.988Z,1.60
2019-02-24T11:13:26.983Z,2.10
2019-02-24T11:14:26.970Z,1.90
2019-02-24T11:15:26.966Z,2.10
2019-02-24T11:16:26.995Z,2.00
2019-02-24T11:17:26.942Z,1.90
2019-02-24T11:18:26.931Z,1.90
2019-02-24T11:19:26.932Z,1.80
2019-02-24T11:20:26.906Z,2.20
2019-02-24T11:21:26.898Z,2.30
2019-02-24T11:22:26.906Z,2.20
2019-02-24T11:23:26.880Z,2.30
2019-02-24T11:24:26.868Z,1.90
2019-02-24T11:25:26.879Z,2.50
2019-02-24T11:26:26.849Z,2.50
2019-02-24T11:27:26.875Z,2.20
2019-02-24T11:28:26.830Z,2.10
2019-02-24T11:29:26.819Z,2.40
2019-02-24T11:30:26.814Z,2.20
2019-02-24T11:31:26.800Z,1.90
2019-02-24T11:32:26.784Z,2.20
2019-02-24T11:33:36.995Z,2.60
2019-02-24T11:34:26.762Z,2.20
2019-02-24T11:35:26.758Z,1.80
2019-02-24T11:36:26.751Z,2.30
2019-02-24T11:37:26.734Z,2.50
2019-02-24T11:38:26.726Z,2.60
2019-02-24T11:39:26.823Z,2.30
2019-02-24T11:40:26.708Z,2.60
2019-02-24T11:41:26.699Z,2.90
2019-02-24T11:42:26.687Z,2.80
2019-02-24T11:43:26.680Z,2.40
2019-02-24T11:44:26.665Z,2.70
2019-02-24T11:45:26.672Z,3.00
2019-02-24T11:46:26.641Z,3.00
2019-02-24T11:47:26.632Z,2.40
2019-02-24T11:48:26.651Z,2.70
2019-02-24T11:49:26.621Z,2.40
2019-02-24T11:50:26.608Z,2.70
2019-02-24T11:51:26.633Z,2.80
2019-02-24T11:52:26.587Z,2.60
2019-02-24T11:53:26.577Z,2.50
2019-02-24T11:54:26.568Z,2.30
2019-02-24T11:55:26.558Z,2.20
2019-02-24T11:56:26.553Z,2.60
2019-02-24T11:57:26.579Z,2.20
2019-02-24T11:58:26.526Z,2.10
2019-02-24T11:59:26.516Z,2.50
2019-02-24T12:00:26.512Z,2.30
2019-02-24T12:01:26.497Z,2.20
2019-02-24T12:02:34.162Z,2.10
2019-02-24T12:03:27.520Z,2.10
2019-02-24T12:04:36.731Z,1.90
2019-02-24T12:05:26.460Z,2.30
2019-02-24T12:06:26.450Z,2.10
2019-02-24T12:07:26.437Z,1.60
2019-02-24T12:08:26.425Z,2.20
2019-02-24T12:09:26.467Z,2.00
2019-02-24T12:10:26.410Z,1.90
2019-02-24T12:11:26.397Z,2.10
2019-02-24T12:12:26.384Z,1.90
2019-02-24T12:13:26.376Z,2.10
2019-02-24T12:14:26.359Z,1.90
2019-02-24T12:15:26.389Z,1.80
2019-02-24T12:16:26.346Z,1.50
2019-02-24T12:17:26.330Z,1.90
2019-02-24T12:18:26.325Z,2.00
2019-02-24T12:19:26.314Z,1.90
2019-02-24T12:20:26.301Z,2.30
2019-02-24T12:21:33.583Z,2.20
2019-02-24T12:22:26.283Z,2.40
2019-02-24T12:23:26.266Z,1.70
2019-02-24T12:24:26.259Z,2.00
2019-02-24T12:25:26.253Z,2.40
2019-02-24T12:26:26.236Z,2.00
2019-02-24T12:27:26.270Z,2.10
2019-02-24T12:28:26.221Z,1.90
2019-02-24T12:29:26.205Z,2.00
2019-02-24T12:30:26.200Z,1.90
2019-02-24T12:31:26.189Z,2.10
2019-02-24T12:32:26.177Z,1.80
2019-02-24T12:33:26.178Z,2.30
2019-02-24T12:34:26.151Z,1.90
2019-02-24T12:35:26.146Z,2.00
2019-02-24T12:36:26.130Z,2.00
2019-02-24T12:37:26.125Z,1.90
2019-02-24T12:38:26.293Z,2.10
2019-02-24T12:39:26.101Z,1.70
2019-02-24T12:40:26.091Z,2.30
2019-02-24T12:41:26.086Z,1.70
2019-02-24T12:42:26.069Z,2.00
2019-02-24T12:43:26.056Z,1.90
2019-02-24T12:44:26.091Z,2.20
2019-02-24T12:45:26.042Z,2.10
2019-02-24T12:46:26.027Z,2.20
2019-02-24T12:47:26.018Z,1.80
2019-02-24T12:48:26.009Z,1.80
2019-02-24T12:49:25.991Z,1.70
2019-02-24T12:50:25.998Z,2.20
2019-02-24T12:51:25.966Z,1.90
2019-02-24T12:52:35.944Z,2.00
2019-02-24T12:53:27.514Z,2.60
2019-02-24T12:54:25.936Z,2.10
2019-02-24T12:55:25.930Z,2.30
2019-02-24T12:56:25.953Z,2.60
2019-02-24T12:57:25.905Z,2.10
2019-02-24T12:58:25.888Z,2.10
2019-02-24T12:59:25.879Z,2.30
2019-02-24T13:00:25.879Z,2.40
2019-02-24T13:01:25.858Z,2.00
2019-02-24T13:02:25.887Z,2.30
2019-02-24T13:03:25.851Z,2.60
2019-02-24T13:04:25.827Z,2.40
2019-02-24T13:05:25.821Z,1.40
2019-02-24T13:06:25.803Z,2.00
2019-02-24T13:07:25.790Z,2.40
2019-02-24T13:08:25.814Z,2.50
2019-02-24T13:09:25.770Z,2.60
2019-02-24T13:10:25.760Z,2.00
2019-02-24T13:11:25.756Z,2.20
2019-02-24T13:12:25.736Z,2.30
2019-02-24T13:13:25.731Z,2.20
2019-02-24T13:14:25.729Z,2.70
2019-02-24T13:15:25.704Z,2.40
2019-02-24T13:16:25.694Z,2.60
2019-02-24T13:17:25.691Z,2.30
2019-02-24T13:18:25.677Z,2.70